sensor_id;sensor_type;location;lat;lon;timestamp;temperature;humidity
21787;DHT22;11055;50.870;4.316;2023-03-20T00:00:26;7.90;99.90
21787;DHT22;11055;50.870;4.316;2023-03-20T00:02:53;8.00;99.90
21787;DHT22;11055;50.870;4.316;2023-03-20T00:05:20;8.20;99.90
21787;DHT22;11055;50.870;4.316;2023-03-20T00:07:47;8.30;99.90
21787;DHT22;11055;50.870;4.316;2023-03-20T00:10:15;8.30;99.90
21787;DHT22;11055;50.870;4.316;2023-03-20T00:12:42;8.20;99.90
21787;DHT22;11055;50.870;4.316;2023-03-20T00:15:29;8.10;99.90
21787;DHT22;11055;50.870;4.316;2023-03-20T00:17:55;8.10;99.90
21787;DHT22;11055;50.870;4.316;2023-03-20T00:20:21;8.10;99.90
21787;DHT22;11055;50.870;4.316;2023-03-20T00:22:47;8.10;99.90
21787;DHT22;11055;50.870;4.316;2023-03-20T00:25:19;8.10;99.90
21787;DHT22;11055;50.870;4.316;2023-03-20T00:27:46;8.00;99.90
21787;DHT22;11055;50.870;4.316;2023-03-20T00:30:19;8.00;99.90
21787;DHT22;11055;50.870;4.316;2023-03-20T00:32:47;8.00;99.90
21787;DHT22;11055;50.870;4.316;2023-03-20T00:35:18;8.10;99.90
21787;DHT22;11055;50.870;4.316;2023-03-20T00:37:44;8.20;99.90
21787;DHT22;11055;50.870;4.316;2023-03-20T00:40:11;8.20;99.90
21787;DHT22;11055;50.870;4.316;2023-03-20T00:42:36;8.40;99.90
21787;DHT22;11055;50.870;4.316;2023-03-20T00:45:02;8.40;99.90
21787;DHT22;11055;50.870;4.316;2023-03-20T00:47:29;8.40;99.90
21787;DHT22;11055;50.870;4.316;2023-03-20T00:49:56;8.30;99.90
21787;DHT22;11055;50.870;4.316;2023-03-20T00:52:23;8.40;99.90
21787;DHT22;11055;50.870;4.316;2023-03-20T00:54:49;8.40;99.90
21787;DHT22;11055;50.870;4.316;2023-03-20T00:57:20;8.40;99.90
21787;DHT22;11055;50.870;4.316;2023-03-20T01:00:03;8.40;99.90
21787;DHT22;11055;50.870;4.316;2023-03-20T01:02:32;8.40;99.90
21787;DHT22;11055;50.870;4.316;2023-03-20T01:04:58;8.50;99.90
21787;DHT22;11055;50.870;4.316;2023-03-20T01:07:24;8.60;99.90
21787;DHT22;11055;50.870;4.316;2023-03-20T01:09:50;8.40;99.90
21787;DHT22;11055;50.870;4.316;2023-03-20T01:12:17;8.10;99.90
21787;DHT22;11055;50.870;4.316;2023-03-20T01:14:43;7.90;99.90
21787;DHT22;11055;50.870;4.316;2023-03-20T01:17:20;8.00;99.90
21787;DHT22;11055;50.870;4.316;2023-03-20T01:19:47;8.00;99.90
21787;DHT22;11055;50.870;4.316;2023-03-20T01:22:13;8.00;99.90
21787;DHT22;11055;50.870;4.316;2023-03-20T01:24:38;8.10;99.90
21787;DHT22;11055;50.870;4.316;2023-03-20T01:27:09;8.30;99.90
21787;DHT22;11055;50.870;4.316;2023-03-20T01:29:37;8.40;99.90
21787;DHT22;11055;50.870;4.316;2023-03-20T01:32:02;8.60;99.90
21787;DHT22;11055;50.870;4.316;2023-03-20T01:34:28;8.80;99.90
21787;DHT22;11055;50.870;4.316;2023-03-20T01:36:56;8.80;99.90
21787;DHT22;11055;50.870;4.316;2023-03-20T01:39:31;8.80;99.90
21787;DHT22;11055;50.870;4.316;2023-03-20T01:41:58;8.60;99.90
21787;DHT22;11055;50.870;4.316;2023-03-20T01:44:30;8.70;99.90
21787;DHT22;11055;50.870;4.316;2023-03-20T01:46:57;8.70;99.90
21787;DHT22;11055;50.870;4.316;2023-03-20T01:51:49;8.70;99.90
21787;DHT22;11055;50.870;4.316;2023-03-20T01:54:30;8.60;99.90
21787;DHT22;11055;50.870;4.316;2023-03-20T02:02:25;8.70;99.90
21787;DHT22;11055;50.870;4.316;2023-03-20T02:05:01;8.70;99.90
21787;DHT22;11055;50.870;4.316;2023-03-20T02:07:28;8.80;99.90
21787;DHT22;11055;50.870;4.316;2023-03-20T02:09:54;8.80;99.90
21787;DHT22;11055;50.870;4.316;2023-03-20T02:12:20;8.80;99.90
21787;DHT22;11055;50.870;4.316;2023-03-20T02:14:46;8.90;99.90
21787;DHT22;11055;50.870;4.316;2023-03-20T02:17:13;8.80;99.90
21787;DHT22;11055;50.870;4.316;2023-03-20T02:19:56;8.80;99.90
21787;DHT22;11055;50.870;4.316;2023-03-20T02:31:21;8.50;99.90
21787;DHT22;11055;50.870;4.316;2023-03-20T02:55:37;8.40;99.90
21787;DHT22;11055;50.870;4.316;2023-03-20T02:58:25;8.40;99.90
21787;DHT22;11055;50.870;4.316;2023-03-20T03:01:09;8.20;99.90
21787;DHT22;11055;50.870;4.316;2023-03-20T03:03:45;8.20;99.90
21787;DHT22;11055;50.870;4.316;2023-03-20T03:08:50;8.30;99.90
21787;DHT22;11055;50.870;4.316;2023-03-20T03:11:18;8.30;99.90
21787;DHT22;11055;50.870;4.316;2023-03-20T03:13:48;8.30;99.90
21787;DHT22;11055;50.870;4.316;2023-03-20T03:16:20;8.30;99.90
21787;DHT22;11055;50.870;4.316;2023-03-20T03:18:49;8.30;99.90
21787;DHT22;11055;50.870;4.316;2023-03-20T03:21:17;8.20;99.90
21787;DHT22;11055;50.870;4.316;2023-03-20T03:23:48;8.20;99.90
21787;DHT22;11055;50.870;4.316;2023-03-20T03:26:23;8.20;99.90
21787;DHT22;11055;50.870;4.316;2023-03-20T03:28:55;8.30;99.90
21787;DHT22;11055;50.870;4.316;2023-03-20T03:31:22;8.30;99.90
21787;DHT22;11055;50.870;4.316;2023-03-20T03:33:51;8.40;99.90
21787;DHT22;11055;50.870;4.316;2023-03-20T03:39:00;8.20;99.90
21787;DHT22;11055;50.870;4.316;2023-03-20T03:41:38;8.10;99.90
21787;DHT22;11055;50.870;4.316;2023-03-20T03:44:29;7.90;99.90
21787;DHT22;11055;50.870;4.316;2023-03-20T03:47:01;7.90;99.90
21787;DHT22;11055;50.870;4.316;2023-03-20T03:49:32;7.90;99.90
21787;DHT22;11055;50.870;4.316;2023-03-20T03:52:04;7.90;99.90
21787;DHT22;11055;50.870;4.316;2023-03-20T03:54:33;7.90;99.90
21787;DHT22;11055;50.870;4.316;2023-03-20T03:57:00;7.90;99.90
21787;DHT22;11055;50.870;4.316;2023-03-20T03:59:41;7.90;99.90
21787;DHT22;11055;50.870;4.316;2023-03-20T04:02:08;7.80;99.90
21787;DHT22;11055;50.870;4.316;2023-03-20T04:04:36;7.90;99.90
21787;DHT22;11055;50.870;4.316;2023-03-20T04:07:04;7.90;99.90
21787;DHT22;11055;50.870;4.316;2023-03-20T04:09:30;8.10;99.90
21787;DHT22;11055;50.870;4.316;2023-03-20T04:11:56;7.90;99.90
21787;DHT22;11055;50.870;4.316;2023-03-20T04:14:22;8.00;99.90
21787;DHT22;11055;50.870;4.316;2023-03-20T04:16:47;8.00;99.90
21787;DHT22;11055;50.870;4.316;2023-03-20T04:19:13;7.70;99.90
21787;DHT22;11055;50.870;4.316;2023-03-20T04:21:39;7.70;99.90
21787;DHT22;11055;50.870;4.316;2023-03-20T04:24:05;7.80;99.90
21787;DHT22;11055;50.870;4.316;2023-03-20T04:26:31;8.00;99.90
21787;DHT22;11055;50.870;4.316;2023-03-20T04:28:56;8.20;99.90
21787;DHT22;11055;50.870;4.316;2023-03-20T04:31:22;8.30;99.90
21787;DHT22;11055;50.870;4.316;2023-03-20T04:33:48;8.30;99.90
21787;DHT22;11055;50.870;4.316;2023-03-20T04:36:14;8.10;99.90
21787;DHT22;11055;50.870;4.316;2023-03-20T04:38:39;8.10;99.90
21787;DHT22;11055;50.870;4.316;2023-03-20T04:41:05;8.00;99.90
21787;DHT22;11055;50.870;4.316;2023-03-20T04:43:31;8.10;99.90
21787;DHT22;11055;50.870;4.316;2023-03-20T04:45:57;8.00;99.90
21787;DHT22;11055;50.870;4.316;2023-03-20T04:48:22;7.90;99.90
21787;DHT22;11055;50.870;4.316;2023-03-20T04:50:48;7.90;99.90
21787;DHT22;11055;50.870;4.316;2023-03-20T04:53:16;7.80;99.90
21787;DHT22;11055;50.870;4.316;2023-03-20T04:55:43;7.70;99.90
21787;DHT22;11055;50.870;4.316;2023-03-20T04:58:09;7.80;99.90
21787;DHT22;11055;50.870;4.316;2023-03-20T05:00:34;7.80;99.90
21787;DHT22;11055;50.870;4.316;2023-03-20T05:03:00;7.90;99.90
21787;DHT22;11055;50.870;4.316;2023-03-20T05:05:26;8.10;99.90
21787;DHT22;11055;50.870;4.316;2023-03-20T05:07:52;8.10;99.90
21787;DHT22;11055;50.870;4.316;2023-03-20T05:10:18;8.20;99.90
21787;DHT22;11055;50.870;4.316;2023-03-20T05:12:43;8.40;99.90
21787;DHT22;11055;50.870;4.316;2023-03-20T05:15:09;8.30;99.90
21787;DHT22;11055;50.870;4.316;2023-03-20T05:17:35;8.20;99.90
21787;DHT22;11055;50.870;4.316;2023-03-20T05:20:01;7.90;99.90
21787;DHT22;11055;50.870;4.316;2023-03-20T05:22:27;7.70;99.90
21787;DHT22;11055;50.870;4.316;2023-03-20T05:24:53;7.50;99.90
21787;DHT22;11055;50.870;4.316;2023-03-20T05:27:18;7.50;99.90
21787;DHT22;11055;50.870;4.316;2023-03-20T05:29:44;7.60;99.90
21787;DHT22;11055;50.870;4.316;2023-03-20T05:32:09;7.60;99.90
21787;DHT22;11055;50.870;4.316;2023-03-20T05:34:37;7.70;99.90
21787;DHT22;11055;50.870;4.316;2023-03-20T05:37:04;7.70;99.90
21787;DHT22;11055;50.870;4.316;2023-03-20T05:39:30;7.70;99.90
21787;DHT22;11055;50.870;4.316;2023-03-20T05:41:55;7.80;99.90
21787;DHT22;11055;50.870;4.316;2023-03-20T05:44:21;7.70;99.90
21787;DHT22;11055;50.870;4.316;2023-03-20T05:46:47;7.70;99.90
21787;DHT22;11055;50.870;4.316;2023-03-20T05:49:12;7.70;99.90
21787;DHT22;11055;50.870;4.316;2023-03-20T05:51:38;7.70;99.90
21787;DHT22;11055;50.870;4.316;2023-03-20T05:54:04;7.80;99.90
21787;DHT22;11055;50.870;4.316;2023-03-20T05:56:30;7.90;99.90
21787;DHT22;11055;50.870;4.316;2023-03-20T05:58:56;7.80;99.90
21787;DHT22;11055;50.870;4.316;2023-03-20T06:01:21;7.80;99.90
21787;DHT22;11055;50.870;4.316;2023-03-20T06:03:47;7.90;99.90
21787;DHT22;11055;50.870;4.316;2023-03-20T06:06:14;7.90;99.90
21787;DHT22;11055;50.870;4.316;2023-03-20T06:08:41;8.00;99.90
21787;DHT22;11055;50.870;4.316;2023-03-20T06:11:07;8.20;99.90
21787;DHT22;11055;50.870;4.316;2023-03-20T06:13:33;8.10;99.90
21787;DHT22;11055;50.870;4.316;2023-03-20T06:15:58;8.00;99.90
21787;DHT22;11055;50.870;4.316;2023-03-20T06:18:25;7.90;99.90
21787;DHT22;11055;50.870;4.316;2023-03-20T06:20:52;7.80;99.90
21787;DHT22;11055;50.870;4.316;2023-03-20T06:23:20;7.70;99.90
21787;DHT22;11055;50.870;4.316;2023-03-20T06:25:46;7.60;99.90
21787;DHT22;11055;50.870;4.316;2023-03-20T06:28:12;7.60;99.90
21787;DHT22;11055;50.870;4.316;2023-03-20T06:30:37;7.70;99.90
21787;DHT22;11055;50.870;4.316;2023-03-20T06:33:05;7.80;99.90
21787;DHT22;11055;50.870;4.316;2023-03-20T06:35:31;7.90;99.90
21787;DHT22;11055;50.870;4.316;2023-03-20T06:37:58;8.00;99.90
21787;DHT22;11055;50.870;4.316;2023-03-20T06:40:24;8.10;99.90
21787;DHT22;11055;50.870;4.316;2023-03-20T06:42:52;8.00;99.90
21787;DHT22;11055;50.870;4.316;2023-03-20T06:45:18;8.00;99.90
21787;DHT22;11055;50.870;4.316;2023-03-20T06:47:44;8.00;99.90
21787;DHT22;11055;50.870;4.316;2023-03-20T06:50:12;8.00;99.90
21787;DHT22;11055;50.870;4.316;2023-03-20T06:52:37;8.00;99.90
21787;DHT22;11055;50.870;4.316;2023-03-20T06:55:04;7.80;99.90
21787;DHT22;11055;50.870;4.316;2023-03-20T06:57:31;7.90;99.90
21787;DHT22;11055;50.870;4.316;2023-03-20T06:59:57;8.00;99.90
21787;DHT22;11055;50.870;4.316;2023-03-20T07:02:23;8.00;99.90
21787;DHT22;11055;50.870;4.316;2023-03-20T07:04:48;8.00;99.90
21787;DHT22;11055;50.870;4.316;2023-03-20T07:07:15;7.90;99.90
21787;DHT22;11055;50.870;4.316;2023-03-20T07:09:41;7.90;99.90
21787;DHT22;11055;50.870;4.316;2023-03-20T07:12:12;7.90;99.90
21787;DHT22;11055;50.870;4.316;2023-03-20T07:14:39;8.00;99.90
21787;DHT22;11055;50.870;4.316;2023-03-20T07:17:06;7.90;99.90
21787;DHT22;11055;50.870;4.316;2023-03-20T07:19:34;8.00;99.90
21787;DHT22;11055;50.870;4.316;2023-03-20T07:22:01;8.00;99.90
21787;DHT22;11055;50.870;4.316;2023-03-20T07:24:29;8.10;99.90
21787;DHT22;11055;50.870;4.316;2023-03-20T07:26:55;8.30;99.90
21787;DHT22;11055;50.870;4.316;2023-03-20T07:29:20;8.20;99.90
21787;DHT22;11055;50.870;4.316;2023-03-20T07:31:46;8.20;99.90
21787;DHT22;11055;50.870;4.316;2023-03-20T07:34:12;8.30;99.90
21787;DHT22;11055;50.870;4.316;2023-03-20T07:36:38;8.30;99.90
21787;DHT22;11055;50.870;4.316;2023-03-20T07:39:04;8.50;99.90
21787;DHT22;11055;50.870;4.316;2023-03-20T07:41:29;8.40;99.90
21787;DHT22;11055;50.870;4.316;2023-03-20T07:43:55;8.30;99.90
21787;DHT22;11055;50.870;4.316;2023-03-20T07:46:21;8.50;99.90
21787;DHT22;11055;50.870;4.316;2023-03-20T07:48:46;8.40;99.90
21787;DHT22;11055;50.870;4.316;2023-03-20T07:51:12;8.30;99.90
21787;DHT22;11055;50.870;4.316;2023-03-20T07:53:39;8.40;99.90
21787;DHT22;11055;50.870;4.316;2023-03-20T07:56:05;8.40;99.90
21787;DHT22;11055;50.870;4.316;2023-03-20T07:58:31;8.50;99.90
21787;DHT22;11055;50.870;4.316;2023-03-20T08:00:57;8.60;99.90
21787;DHT22;11055;50.870;4.316;2023-03-20T08:03:23;8.80;99.90
21787;DHT22;11055;50.870;4.316;2023-03-20T08:05:48;8.80;99.90
21787;DHT22;11055;50.870;4.316;2023-03-20T08:08:14;8.80;99.90
21787;DHT22;11055;50.870;4.316;2023-03-20T08:10:40;8.80;99.90
21787;DHT22;11055;50.870;4.316;2023-03-20T08:13:05;8.60;99.90
21787;DHT22;11055;50.870;4.316;2023-03-20T08:15:31;8.60;99.90
21787;DHT22;11055;50.870;4.316;2023-03-20T08:17:57;8.70;99.90
21787;DHT22;11055;50.870;4.316;2023-03-20T08:20:23;8.70;99.90
21787;DHT22;11055;50.870;4.316;2023-03-20T08:22:49;8.80;99.90
21787;DHT22;11055;50.870;4.316;2023-03-20T08:25:15;8.90;99.90
21787;DHT22;11055;50.870;4.316;2023-03-20T08:27:41;9.10;99.90
21787;DHT22;11055;50.870;4.316;2023-03-20T08:30:07;9.10;99.90
21787;DHT22;11055;50.870;4.316;2023-03-20T08:32:34;9.20;99.90
21787;DHT22;11055;50.870;4.316;2023-03-20T08:35:00;9.10;99.90
21787;DHT22;11055;50.870;4.316;2023-03-20T08:37:27;9.00;99.90
21787;DHT22;11055;50.870;4.316;2023-03-20T08:39:53;9.10;99.90
21787;DHT22;11055;50.870;4.316;2023-03-20T08:42:18;9.00;99.90
21787;DHT22;11055;50.870;4.316;2023-03-20T08:44:44;9.00;99.90
21787;DHT22;11055;50.870;4.316;2023-03-20T08:47:10;9.00;99.90
21787;DHT22;11055;50.870;4.316;2023-03-20T08:49:36;9.10;99.90
21787;DHT22;11055;50.870;4.316;2023-03-20T08:52:02;9.30;99.90
21787;DHT22;11055;50.870;4.316;2023-03-20T08:54:28;9.30;99.90
21787;DHT22;11055;50.870;4.316;2023-03-20T08:56:54;9.30;99.90
21787;DHT22;11055;50.870;4.316;2023-03-20T08:59:20;9.20;99.90
21787;DHT22;11055;50.870;4.316;2023-03-20T09:01:47;9.20;99.90
21787;DHT22;11055;50.870;4.316;2023-03-20T09:04:13;9.10;99.90
21787;DHT22;11055;50.870;4.316;2023-03-20T09:06:39;9.10;99.90
21787;DHT22;11055;50.870;4.316;2023-03-20T09:09:05;9.10;99.90
21787;DHT22;11055;50.870;4.316;2023-03-20T09:11:32;9.10;99.90
21787;DHT22;11055;50.870;4.316;2023-03-20T09:13:58;9.20;99.90
21787;DHT22;11055;50.870;4.316;2023-03-20T09:16:24;9.20;99.90
21787;DHT22;11055;50.870;4.316;2023-03-20T09:18:50;9.40;99.90
21787;DHT22;11055;50.870;4.316;2023-03-20T09:21:16;9.50;99.90
21787;DHT22;11055;50.870;4.316;2023-03-20T09:23:41;9.60;99.90
21787;DHT22;11055;50.870;4.316;2023-03-20T09:26:07;9.80;99.90
21787;DHT22;11055;50.870;4.316;2023-03-20T09:28:33;9.80;99.90
21787;DHT22;11055;50.870;4.316;2023-03-20T09:30:59;10.00;99.90
21787;DHT22;11055;50.870;4.316;2023-03-20T09:33:26;10.00;99.90
21787;DHT22;11055;50.870;4.316;2023-03-20T09:35:52;10.20;99.90
21787;DHT22;11055;50.870;4.316;2023-03-20T09:38:17;10.00;99.90
21787;DHT22;11055;50.870;4.316;2023-03-20T09:40:59;9.80;99.90
21787;DHT22;11055;50.870;4.316;2023-03-20T09:49:19;10.00;99.90
21787;DHT22;11055;50.870;4.316;2023-03-20T09:51:56;10.50;99.90
21787;DHT22;11055;50.870;4.316;2023-03-20T09:54:34;11.00;99.90
21787;DHT22;11055;50.870;4.316;2023-03-20T09:57:02;11.30;99.90
21787;DHT22;11055;50.870;4.316;2023-03-20T09:59:30;11.30;99.90
21787;DHT22;11055;50.870;4.316;2023-03-20T10:02:41;11.20;99.90
21787;DHT22;11055;50.870;4.316;2023-03-20T10:05:29;11.30;99.90
21787;DHT22;11055;50.870;4.316;2023-03-20T10:07:59;10.80;99.90
21787;DHT22;11055;50.870;4.316;2023-03-20T10:10:49;10.90;99.90
21787;DHT22;11055;50.870;4.316;2023-03-20T10:18:29;11.20;99.90
21787;DHT22;11055;50.870;4.316;2023-03-20T10:21:04;11.30;99.90
21787;DHT22;11055;50.870;4.316;2023-03-20T10:26:12;11.80;99.90
21787;DHT22;11055;50.870;4.316;2023-03-20T10:28:51;11.70;99.90
21787;DHT22;11055;50.870;4.316;2023-03-20T10:31:46;12.20;99.90
21787;DHT22;11055;50.870;4.316;2023-03-20T10:37:38;12.30;99.90
21787;DHT22;11055;50.870;4.316;2023-03-20T10:40:28;12.00;99.90
21787;DHT22;11055;50.870;4.316;2023-03-20T10:43:00;12.10;99.90
21787;DHT22;11055;50.870;4.316;2023-03-20T10:45:46;11.90;99.90
21787;DHT22;11055;50.870;4.316;2023-03-20T10:48:29;11.80;99.90
21787;DHT22;11055;50.870;4.316;2023-03-20T10:51:00;11.90;99.90
21787;DHT22;11055;50.870;4.316;2023-03-20T10:53:41;12.00;99.90
21787;DHT22;11055;50.870;4.316;2023-03-20T10:56:13;12.40;99.90
21787;DHT22;11055;50.870;4.316;2023-03-20T10:58:41;12.20;99.90
21787;DHT22;11055;50.870;4.316;2023-03-20T11:01:07;12.10;99.90
21787;DHT22;11055;50.870;4.316;2023-03-20T11:03:33;12.00;99.90
21787;DHT22;11055;50.870;4.316;2023-03-20T11:06:19;12.00;99.90
21787;DHT22;11055;50.870;4.316;2023-03-20T11:08:51;12.00;99.90
21787;DHT22;11055;50.870;4.316;2023-03-20T11:11:27;12.10;99.90
21787;DHT22;11055;50.870;4.316;2023-03-20T11:14:09;12.40;99.90
21787;DHT22;11055;50.870;4.316;2023-03-20T11:16:40;12.70;99.90
21787;DHT22;11055;50.870;4.316;2023-03-20T11:19:07;12.70;99.90
21787;DHT22;11055;50.870;4.316;2023-03-20T11:21:44;12.90;99.90
21787;DHT22;11055;50.870;4.316;2023-03-20T11:26:51;13.20;99.90
21787;DHT22;11055;50.870;4.316;2023-03-20T11:29:28;13.30;99.90
21787;DHT22;11055;50.870;4.316;2023-03-20T11:32:03;13.70;99.90
21787;DHT22;11055;50.870;4.316;2023-03-20T11:34:30;13.60;99.90
21787;DHT22;11055;50.870;4.316;2023-03-20T11:37:00;13.70;99.90
21787;DHT22;11055;50.870;4.316;2023-03-20T11:39:30;13.60;99.90
21787;DHT22;11055;50.870;4.316;2023-03-20T11:41:57;13.90;99.90
21787;DHT22;11055;50.870;4.316;2023-03-20T11:44:30;14.10;99.90
21787;DHT22;11055;50.870;4.316;2023-03-20T11:47:11;14.50;99.90
21787;DHT22;11055;50.870;4.316;2023-03-20T11:50:23;14.50;99.90
21787;DHT22;11055;50.870;4.316;2023-03-20T11:52:49;14.30;99.90
21787;DHT22;11055;50.870;4.316;2023-03-20T11:55:28;14.20;99.90
21787;DHT22;11055;50.870;4.316;2023-03-20T11:57:59;14.00;99.90
21787;DHT22;11055;50.870;4.316;2023-03-20T12:00:33;13.70;99.90
21787;DHT22;11055;50.870;4.316;2023-03-20T12:03:00;13.90;99.90
21787;DHT22;11055;50.870;4.316;2023-03-20T12:05:33;14.90;99.90
21787;DHT22;11055;50.870;4.316;2023-03-20T12:10:32;17.70;99.90
21787;DHT22;11055;50.870;4.316;2023-03-20T12:13:13;17.70;99.90
21787;DHT22;11055;50.870;4.316;2023-03-20T12:15:45;18.40;99.90
21787;DHT22;11055;50.870;4.316;2023-03-20T12:21:16;17.70;99.90
21787;DHT22;11055;50.870;4.316;2023-03-20T12:26:34;15.60;99.90
21787;DHT22;11055;50.870;4.316;2023-03-20T12:29:26;15.80;99.90
21787;DHT22;11055;50.870;4.316;2023-03-20T12:32:07;15.70;99.90
21787;DHT22;11055;50.870;4.316;2023-03-20T12:34:42;15.30;99.90
21787;DHT22;11055;50.870;4.316;2023-03-20T12:37:10;15.10;99.90
21787;DHT22;11055;50.870;4.316;2023-03-20T12:39:57;15.50;99.90
21787;DHT22;11055;50.870;4.316;2023-03-20T12:45:22;17.20;99.90
21787;DHT22;11055;50.870;4.316;2023-03-20T12:48:01;17.10;99.90
21787;DHT22;11055;50.870;4.316;2023-03-20T12:56:29;16.20;99.90
21787;DHT22;11055;50.870;4.316;2023-03-20T13:01:31;15.10;99.90
21787;DHT22;11055;50.870;4.316;2023-03-20T13:07:12;13.70;99.90
21787;DHT22;11055;50.870;4.316;2023-03-20T13:20:27;13.40;99.90
21787;DHT22;11055;50.870;4.316;2023-03-20T13:25:43;13.30;99.90
21787;DHT22;11055;50.870;4.316;2023-03-20T13:28:23;13.30;99.90
21787;DHT22;11055;50.870;4.316;2023-03-20T13:34:15;13.20;99.90
21787;DHT22;11055;50.870;4.316;2023-03-20T13:45:24;12.90;99.90
21787;DHT22;11055;50.870;4.316;2023-03-20T13:47:52;13.00;99.90
21787;DHT22;11055;50.870;4.316;2023-03-20T13:55:59;12.80;99.90
21787;DHT22;11055;50.870;4.316;2023-03-20T13:58:40;12.70;99.90
21787;DHT22;11055;50.870;4.316;2023-03-20T14:03:54;12.80;99.90
21787;DHT22;11055;50.870;4.316;2023-03-20T14:08:55;12.80;99.90
21787;DHT22;11055;50.870;4.316;2023-03-20T14:13:54;12.80;99.90
21787;DHT22;11055;50.870;4.316;2023-03-20T14:16:21;13.10;99.90
21787;DHT22;11055;50.870;4.316;2023-03-20T14:18:49;13.20;99.90
21787;DHT22;11055;50.870;4.316;2023-03-20T14:21:19;13.10;99.90
21787;DHT22;11055;50.870;4.316;2023-03-20T14:23:49;13.00;99.90
21787;DHT22;11055;50.870;4.316;2023-03-20T14:26:20;13.10;99.90
21787;DHT22;11055;50.870;4.316;2023-03-20T14:31:26;13.10;99.90
21787;DHT22;11055;50.870;4.316;2023-03-20T14:34:06;13.00;99.90
21787;DHT22;11055;50.870;4.316;2023-03-20T14:39:46;13.00;99.90
21787;DHT22;11055;50.870;4.316;2023-03-20T14:42:45;13.00;99.90
21787;DHT22;11055;50.870;4.316;2023-03-20T14:48:09;13.20;99.90
21787;DHT22;11055;50.870;4.316;2023-03-20T14:53:27;13.10;99.90
21787;DHT22;11055;50.870;4.316;2023-03-20T15:03:43;13.20;99.90
21787;DHT22;11055;50.870;4.316;2023-03-20T15:06:12;12.90;99.90
21787;DHT22;11055;50.870;4.316;2023-03-20T15:08:51;12.70;99.90
21787;DHT22;11055;50.870;4.316;2023-03-20T15:11:18;12.90;99.90
21787;DHT22;11055;50.870;4.316;2023-03-20T15:13:46;12.80;99.90
21787;DHT22;11055;50.870;4.316;2023-03-20T15:16:13;12.70;99.90
21787;DHT22;11055;50.870;4.316;2023-03-20T15:21:16;12.70;99.90
21787;DHT22;11055;50.870;4.316;2023-03-20T15:23:43;12.70;99.90
21787;DHT22;11055;50.870;4.316;2023-03-20T15:26:10;12.70;99.90
21787;DHT22;11055;50.870;4.316;2023-03-20T15:28:36;12.80;99.90
21787;DHT22;11055;50.870;4.316;2023-03-20T15:31:03;12.80;99.90
21787;DHT22;11055;50.870;4.316;2023-03-20T15:33:35;12.80;99.90
21787;DHT22;11055;50.870;4.316;2023-03-20T15:36:18;12.60;99.90
21787;DHT22;11055;50.870;4.316;2023-03-20T15:38:45;12.70;99.90
21787;DHT22;11055;50.870;4.316;2023-03-20T15:41:29;12.70;99.90
21787;DHT22;11055;50.870;4.316;2023-03-20T15:47:02;12.60;99.90
21787;DHT22;11055;50.870;4.316;2023-03-20T15:49:30;12.50;99.90
21787;DHT22;11055;50.870;4.316;2023-03-20T15:51:59;12.40;99.90
21787;DHT22;11055;50.870;4.316;2023-03-20T15:54:26;12.60;99.90
21787;DHT22;11055;50.870;4.316;2023-03-20T15:56:54;12.80;99.90
21787;DHT22;11055;50.870;4.316;2023-03-20T15:59:24;12.90;99.90
21787;DHT22;11055;50.870;4.316;2023-03-20T16:01:53;13.10;99.90
21787;DHT22;11055;50.870;4.316;2023-03-20T16:04:20;13.20;99.90
21787;DHT22;11055;50.870;4.316;2023-03-20T16:06:51;13.40;99.90
21787;DHT22;11055;50.870;4.316;2023-03-20T16:09:17;13.40;99.90
21787;DHT22;11055;50.870;4.316;2023-03-20T16:11:46;13.10;99.90
21787;DHT22;11055;50.870;4.316;2023-03-20T16:14:22;12.90;99.90
21787;DHT22;11055;50.870;4.316;2023-03-20T16:16:50;12.90;99.90
21787;DHT22;11055;50.870;4.316;2023-03-20T16:19:16;12.90;99.90
21787;DHT22;11055;50.870;4.316;2023-03-20T16:21:47;12.90;99.90
21787;DHT22;11055;50.870;4.316;2023-03-20T16:24:28;12.90;99.90
21787;DHT22;11055;50.870;4.316;2023-03-20T16:26:56;13.00;99.90
21787;DHT22;11055;50.870;4.316;2023-03-20T16:29:23;12.90;99.90
21787;DHT22;11055;50.870;4.316;2023-03-20T16:32:02;12.70;99.90
21787;DHT22;11055;50.870;4.316;2023-03-20T16:34:34;12.70;99.90
21787;DHT22;11055;50.870;4.316;2023-03-20T16:37:05;12.80;99.90
21787;DHT22;11055;50.870;4.316;2023-03-20T16:39:31;12.80;99.90
21787;DHT22;11055;50.870;4.316;2023-03-20T16:42:19;12.60;99.90
21787;DHT22;11055;50.870;4.316;2023-03-20T16:44:55;12.50;99.90
21787;DHT22;11055;50.870;4.316;2023-03-20T16:47:32;12.50;99.90
21787;DHT22;11055;50.870;4.316;2023-03-20T16:50:10;12.60;99.90
21787;DHT22;11055;50.870;4.316;2023-03-20T16:52:39;12.70;99.90
21787;DHT22;11055;50.870;4.316;2023-03-20T16:55:13;12.80;99.90
21787;DHT22;11055;50.870;4.316;2023-03-20T16:57:39;12.90;99.90
21787;DHT22;11055;50.870;4.316;2023-03-20T17:00:22;12.80;99.90
21787;DHT22;11055;50.870;4.316;2023-03-20T17:02:51;12.90;99.90
21787;DHT22;11055;50.870;4.316;2023-03-20T17:05:22;12.90;99.90
21787;DHT22;11055;50.870;4.316;2023-03-20T17:07:57;12.90;99.90
21787;DHT22;11055;50.870;4.316;2023-03-20T17:10:27;12.90;99.90
21787;DHT22;11055;50.870;4.316;2023-03-20T17:12:53;12.80;99.90
21787;DHT22;11055;50.870;4.316;2023-03-20T17:15:22;12.80;99.90
21787;DHT22;11055;50.870;4.316;2023-03-20T17:17:48;12.80;99.90
21787;DHT22;11055;50.870;4.316;2023-03-20T17:20:24;12.80;99.90
21787;DHT22;11055;50.870;4.316;2023-03-20T17:22:51;12.80;99.90
21787;DHT22;11055;50.870;4.316;2023-03-20T17:25:16;12.90;99.90
21787;DHT22;11055;50.870;4.316;2023-03-20T17:27:43;13.00;99.90
21787;DHT22;11055;50.870;4.316;2023-03-20T17:30:27;12.90;99.90
21787;DHT22;11055;50.870;4.316;2023-03-20T17:32:53;12.80;99.90
21787;DHT22;11055;50.870;4.316;2023-03-20T17:35:19;12.80;99.90
21787;DHT22;11055;50.870;4.316;2023-03-20T17:37:44;12.60;99.90
21787;DHT22;11055;50.870;4.316;2023-03-20T17:40:17;12.60;99.90
21787;DHT22;11055;50.870;4.316;2023-03-20T17:42:43;12.40;99.90
21787;DHT22;11055;50.870;4.316;2023-03-20T17:45:12;12.40;99.90
21787;DHT22;11055;50.870;4.316;2023-03-20T17:47:39;12.40;99.90
21787;DHT22;11055;50.870;4.316;2023-03-20T17:50:06;12.40;99.90
21787;DHT22;11055;50.870;4.316;2023-03-20T17:52:31;12.50;99.90
21787;DHT22;11055;50.870;4.316;2023-03-20T17:54:57;12.50;99.90
21787;DHT22;11055;50.870;4.316;2023-03-20T17:57:30;12.60;99.90
21787;DHT22;11055;50.870;4.316;2023-03-20T17:59:57;12.40;99.90
21787;DHT22;11055;50.870;4.316;2023-03-20T18:02:23;12.40;99.90
21787;DHT22;11055;50.870;4.316;2023-03-20T18:04:49;12.30;99.90
21787;DHT22;11055;50.870;4.316;2023-03-20T18:07:16;12.30;99.90
21787;DHT22;11055;50.870;4.316;2023-03-20T18:09:43;12.30;99.90
21787;DHT22;11055;50.870;4.316;2023-03-20T18:12:10;12.40;99.90
21787;DHT22;11055;50.870;4.316;2023-03-20T18:14:37;12.50;99.90
21787;DHT22;11055;50.870;4.316;2023-03-20T18:17:02;12.50;99.90
21787;DHT22;11055;50.870;4.316;2023-03-20T18:19:28;12.50;99.90
21787;DHT22;11055;50.870;4.316;2023-03-20T18:21:55;12.70;99.90
21787;DHT22;11055;50.870;4.316;2023-03-20T18:24:21;12.80;99.90